Time;durP1;ratioP1;P1;durP2;ratioP2;P2;SDS_P1;SDS_P2;PMS_P1;PMS_P2;Temp;Humidity;BMP_temperature;BMP_pressure;BME280_temperature;BME280_humidity;BME280_pressure;Samples;Min_cycle;Max_cycle;Signal;HPM_P1;HPM_P2
2024/03/27 00:00:58;;;;;;;15.78;9.65;;;;;;;6.52;67.76;99076.33;1827618;78;27551;-66
2024/03/27 00:03:26;;;;;;;19.02;11.12;;;;;;;6.51;67.65;99070.73;1794850;80;25400;-67
2024/03/27 00:05:54;;;;;;;17.07;10.10;;;;;;;6.50;67.73;99075.86;1827575;78;25425;-67
2024/03/27 00:08:20;;;;;;;17.27;10.03;;;;;;;6.50;67.62;99075.33;1827388;78;25610;-67
2024/03/27 00:10:48;;;;;;;18.80;9.70;;;;;;;6.50;67.59;99075.86;1827480;78;25408;-67
2024/03/27 00:13:14;;;;;;;20.45;10.25;;;;;;;6.49;67.48;99071.61;1827527;78;27410;-67
2024/03/27 00:15:51;;;;;;;13.20;8.55;;;;;;;6.46;67.67;99061.48;1827405;78;25371;-67
2024/03/27 00:18:19;;;;;;;22.25;11.15;;;;;;;6.44;67.58;99069.06;1794262;80;25428;-67
2024/03/27 00:20:46;;;;;;;18.57;10.20;;;;;;;6.43;67.60;99058.84;1827146;78;26139;-68
2024/03/27 00:23:15;;;;;;;17.10;10.00;;;;;;;6.41;67.74;99061.06;1794132;80;25490;-68
2024/03/27 00:25:44;;;;;;;17.10;9.85;;;;;;;6.40;67.67;99056.00;1827673;78;27509;-68
2024/03/27 00:28:10;;;;;;;15.98;9.65;;;;;;;6.39;68.00;99051.74;1827774;78;25772;-68
2024/03/27 00:30:36;;;;;;;17.52;9.43;;;;;;;6.38;67.63;99050.94;1827745;78;25633;-68
2024/03/27 00:33:04;;;;;;;15.93;9.08;;;;;;;6.34;67.84;99040.02;1827716;78;25520;-68
2024/03/27 00:35:30;;;;;;;17.57;9.53;;;;;;;6.33;67.79;99038.98;1827514;78;25432;-68
2024/03/27 00:37:56;;;;;;;16.10;9.80;;;;;;;6.32;67.80;99038.20;1827469;78;27533;-68
2024/03/27 00:40:22;;;;;;;15.53;9.33;;;;;;;6.32;67.78;99032.83;1794867;80;25396;-68
2024/03/27 00:42:50;;;;;;;21.93;10.98;;;;;;;6.31;67.79;99033.14;1827480;78;25518;-68
2024/03/27 00:45:18;;;;;;;18.40;10.58;;;;;;;6.30;67.77;99028.33;1827471;78;25590;-68
2024/03/27 00:47:44;;;;;;;19.77;10.40;;;;;;;6.30;67.77;99032.89;1827481;78;25598;-68
2024/03/27 00:50:10;;;;;;;16.35;9.58;;;;;;;6.28;67.73;99025.17;1827467;78;28091;-67
2024/03/27 00:52:37;;;;;;;18.82;9.63;;;;;;;6.25;67.90;99019.07;1827396;78;25544;-68
2024/03/27 00:55:05;;;;;;;15.88;9.05;;;;;;;6.24;67.87;99021.50;1827565;78;25392;-67
2024/03/27 00:57:31;;;;;;;16.17;10.08;;;;;;;6.23;68.02;99011.07;1827587;78;25552;-67
2024/03/27 00:59:59;;;;;;;16.35;8.95;;;;;;;6.21;67.86;99015.97;1827511;78;25453;-67
2024/03/27 01:02:26;;;;;;;16.35;9.68;;;;;;;6.20;67.90;99004.98;1827455;78;28532;-67
2024/03/27 01:04:52;;;;;;;15.98;9.60;;;;;;;6.20;67.99;99005.78;1827302;78;27301;-68
2024/03/27 01:07:19;;;;;;;15.98;9.58;;;;;;;6.19;67.91;99008.22;1827434;78;25597;-68
2024/03/27 01:09:46;;;;;;;16.07;9.93;;;;;;;6.19;67.77;99002.07;1827402;78;25437;-68
2024/03/27 01:12:12;;;;;;;15.95;10.15;;;;;;;6.17;67.76;99000.47;1796749;78;25750;-68
2024/03/27 01:14:40;;;;;;;14.13;8.95;;;;;;;6.16;67.81;98999.44;1827476;78;28347;-68
2024/03/27 01:17:09;;;;;;;15.03;9.98;;;;;;;6.14;67.95;98998.41;1827332;78;25506;-67
2024/03/27 01:19:36;;;;;;;15.95;9.68;;;;;;;6.14;67.87;98994.94;1794911;80;25526;-67
2024/03/27 01:22:04;;;;;;;14.43;10.03;;;;;;;6.13;67.93;98992.00;1827402;78;25996;-67
2024/03/27 01:24:30;;;;;;;18.50;9.18;;;;;;;6.13;67.89;98985.29;1827460;78;25629;-67
2024/03/27 01:26:56;;;;;;;15.58;9.75;;;;;;;6.13;68.09;98986.63;1794984;80;27720;-67
2024/03/27 01:29:22;;;;;;;14.68;9.60;;;;;;;6.11;67.81;98982.13;1826971;78;25551;-67
2024/03/27 01:31:48;;;;;;;15.15;9.25;;;;;;;6.10;67.92;98984.59;1827451;78;25379;-67
2024/03/27 01:34:16;;;;;;;13.72;9.25;;;;;;;6.07;67.75;98975.81;1827417;78;25597;-67
2024/03/27 01:36:42;;;;;;;13.93;8.93;;;;;;;6.04;67.74;98976.42;1827452;78;25433;-67
2024/03/27 01:39:10;;;;;;;13.28;8.95;;;;;;;6.02;67.80;98983.44;1827417;78;28476;-68
2024/03/27 01:41:37;;;;;;;13.13;8.00;;;;;;;6.00;67.95;98972.23;1827324;78;25812;-67
2024/03/27 01:44:04;;;;;;;16.30;8.10;;;;;;;6.01;67.97;98973.02;1827444;78;25559;-67
2024/03/27 01:46:32;;;;;;;16.73;8.33;;;;;;;6.00;67.95;98970.11;1794817;80;25477;-67
2024/03/27 01:49:00;;;;;;;13.10;8.05;;;;;;;6.01;67.91;98966.30;1827440;78;25643;-67
2024/03/27 01:51:26;;;;;;;14.68;8.83;;;;;;;6.00;68.00;98972.23;1794851;80;27495;-68
2024/03/27 01:53:54;;;;;;;14.13;8.50;;;;;;;6.02;67.70;98965.21;1827291;78;25493;-68
2024/03/27 01:56:21;;;;;;;15.50;9.70;;;;;;;5.98;67.66;98960.45;1827419;78;25437;-68
2024/03/27 01:58:49;;;;;;;14.47;8.45;;;;;;;6.00;67.74;98967.42;1794820;80;25576;-68
2024/03/27 02:01:17;;;;;;;12.28;8.08;;;;;;;5.98;67.76;98959.67;1827454;78;25472;-68
2024/03/27 02:03:46;;;;;;;14.33;9.03;;;;;;;5.97;67.70;98945.45;1797511;78;27668;-67
2024/03/27 02:06:12;;;;;;;13.98;8.95;;;;;;;5.96;67.71;98957.30;1827500;78;25523;-67
2024/03/27 02:08:38;;;;;;;17.00;9.50;;;;;;;5.93;67.61;98950.39;1827367;78;25452;-67
2024/03/27 02:11:05;;;;;;;15.18;8.30;;;;;;;5.93;67.67;98947.16;1827395;78;25595;-67
2024/03/27 02:13:32;;;;;;;11.03;7.60;;;;;;;5.92;67.67;98941.53;1794892;80;25389;-67
2024/03/27 02:16:01;;;;;;;13.18;8.53;;;;;;;5.90;67.56;98941.62;1827394;78;27006;-67
2024/03/27 02:18:27;;;;;;;11.38;8.40;;;;;;;5.88;67.60;98935.77;1827354;78;25742;-67
2024/03/27 02:21:23;;;;;;;14.47;8.33;;;;;;;5.86;67.58;98929.38;1827436;78;25664;-67
2024/03/27 02:24:16;;;;;;;13.85;8.30;;;;;;;5.85;67.71;98928.34;1794789;80;26580;-67
2024/03/27 02:26:45;;;;;;;14.03;8.50;;;;;;;5.84;67.64;98931.58;1827516;78;25441;-68
2024/03/27 02:29:13;;;;;;;13.00;8.68;;;;;;;5.83;67.72;98932.67;1794821;80;27494;-67
2024/03/27 02:31:41;;;;;;;11.65;8.38;;;;;;;5.85;67.65;98928.34;1821349;78;26018;-67
2024/03/27 02:34:08;;;;;;;14.73;8.08;;;;;;;5.83;67.64;98923.84;1821403;78;25375;-67
2024/03/27 02:36:37;;;;;;;16.57;8.48;;;;;;;5.81;67.64;98920.13;1821375;78;25572;-67
2024/03/27 02:39:07;;;;;;;13.62;8.05;;;;;;;5.78;67.68;98920.17;1789089;80;25678;-67
2024/03/27 02:41:35;;;;;;;12.93;8.28;;;;;;;5.77;67.63;98917.27;1821551;78;27570;-67
2024/03/27 02:44:01;;;;;;;13.00;7.30;;;;;;;5.76;67.69;98916.23;1821262;78;25366;-66
2024/03/27 02:46:29;;;;;;;14.98;7.95;;;;;;;5.75;67.76;98914.64;1788935;80;25534;-66
2024/03/27 02:48:57;;;;;;;11.20;6.97;;;;;;;5.75;67.70;98924.03;1821227;78;26334;-66
2024/03/27 02:51:23;;;;;;;13.83;7.75;;;;;;;5.72;67.72;98915.26;1821307;78;25531;-66
2024/03/27 02:53:51;;;;;;;10.95;7.62;;;;;;;5.72;67.73;98913.39;1821312;78;27459;-66
2024/03/27 02:56:17;;;;;;;13.20;7.47;;;;;;;5.72;67.72;98908.55;1821216;78;25598;-66
2024/03/27 02:58:44;;;;;;;10.30;6.58;;;;;;;5.72;67.78;98917.94;1821316;78;25644;-66
2024/03/27 03:01:11;;;;;;;11.80;7.62;;;;;;;5.73;67.68;98910.14;1788943;80;26310;-66
2024/03/27 03:03:37;;;;;;;9.15;6.87;;;;;;;5.71;67.71;98905.64;1821351;78;25633;-66
2024/03/27 03:06:07;;;;;;;15.90;7.28;;;;;;;5.72;67.69;98904.52;1788979;80;28158;-67
2024/03/27 03:08:33;;;;;;;;;;;;;;;5.71;67.70;98908.33;1824020;78;25616;-66
2024/03/27 03:10:59;;;;;;;10.60;7.20;;;;;;;5.72;67.78;98889.23;1821278;78;29610;-66
2024/03/27 03:13:25;;;;;;;11.55;7.42;;;;;;;5.71;67.66;98888.98;1821253;78;25584;-66
2024/03/27 03:15:52;;;;;;;11.70;7.55;;;;;;;5.69;67.67;98879.13;1821330;78;25377;-66
2024/03/27 03:18:20;;;;;;;12.18;7.35;;;;;;;5.69;67.67;98883.70;1788924;80;27475;-66
2024/03/27 03:20:47;;;;;;;12.18;6.90;;;;;;;5.67;67.58;98869.79;1821188;78;25583;-66
2024/03/27 03:23:15;;;;;;;12.18;8.03;;;;;;;5.66;67.57;98862.30;1821325;78;25595;-67
2024/03/27 03:25:42;;;;;;;8.58;6.20;;;;;;;5.64;67.65;98861.05;1821254;78;26335;-67
2024/03/27 03:28:08;;;;;;;10.72;6.87;;;;;;;5.64;67.54;98867.75;1821348;78;25380;-66
2024/03/27 03:30:36;;;;;;;9.78;6.85;;;;;;;5.62;67.53;98869.40;1788800;80;27518;-67
2024/03/27 03:33:04;;;;;;;10.30;6.92;;;;;;;5.64;67.57;98858.36;1821238;78;25344;-67
2024/03/27 03:35:30;;;;;;;14.17;7.50;;;;;;;5.63;67.58;98854.09;1821726;78;25522;-67
2024/03/27 03:37:57;;;;;;;10.70;6.90;;;;;;;5.61;67.50;98849.03;1821356;78;25561;-66
2024/03/27 03:40:23;;;;;;;13.18;7.97;;;;;;;5.62;67.49;98851.97;1789145;80;25549;-66
2024/03/27 03:42:49;;;;;;;11.40;7.58;;;;;;;5.61;67.52;98842.32;1789653;78;27568;-66
2024/03/27 03:45:17;;;;;;;11.22;8.00;;;;;;;5.59;67.46;98839.95;1789010;80;25465;-66
2024/03/27 03:47:43;;;;;;;11.03;7.72;;;;;;;5.57;67.53;98836.80;1821429;78;25438;-66
2024/03/27 03:50:11;;;;;;;12.50;7.65;;;;;;;5.57;67.48;98833.33;1789077;80;27772;-66
2024/03/27 03:52:37;;;;;;;14.65;7.05;;;;;;;5.55;67.40;98823.44;1821445;78;25551;-67
2024/03/27 03:55:08;;;;;;;11.80;7.10;;;;;;;5.56;67.49;98821.01;1789097;80;28335;-66
2024/03/27 03:57:34;;;;;;;12.65;7.17;;;;;;;5.54;67.45;98821.31;1821537;78;25426;-66
2024/03/27 04:00:07;;;;;;;12.47;7.40;;;;;;;5.55;67.51;98821.56;1789086;80;25565;-66
2024/03/27 04:02:33;;;;;;;10.75;7.17;;;;;;;5.56;67.50;98822.34;1821435;78;25484;-66
2024/03/27 04:04:59;;;;;;;11.55;7.58;;;;;;;5.57;67.43;98814.55;1789155;80;25621;-67
2024/03/27 04:07:25;;;;;;;10.28;7.22;;;;;;;5.54;67.46;98811.92;1821427;78;27405;-66
2024/03/27 04:09:53;;;;;;;11.38;7.50;;;;;;;5.55;67.42;98818.89;1789068;80;25601;-66
2024/03/27 04:12:19;;;;;;;10.93;7.05;;;;;;;5.56;67.42;98814.30;1821511;78;25380;-66
2024/03/27 04:14:45;;;;;;;10.40;7.08;;;;;;;5.56;67.38;98823.12;1821470;78;26094;-67
2024/03/27 04:17:11;;;;;;;11.57;7.08;;;;;;;5.59;67.37;98817.15;1821391;78;25525;-66
2024/03/27 04:19:37;;;;;;;10.58;7.10;;;;;;;5.59;67.35;98809.66;1821368;78;27507;-66
2024/03/27 04:22:03;;;;;;;11.03;7.12;;;;;;;5.59;67.32;98808.32;1821303;78;25719;-66
2024/03/27 04:24:29;;;;;;;11.43;6.97;;;;;;;5.59;67.28;98822.52;1821421;78;25518;-66
2024/03/27 04:26:55;;;;;;;10.15;6.95;;;;;;;5.59;67.25;98816.37;1821370;78;25540;-67
2024/03/27 04:29:22;;;;;;;10.65;7.53;;;;;;;5.60;67.17;98823.30;1821377;78;25351;-67
2024/03/27 04:31:49;;;;;;;17.62;6.95;;;;;;;5.60;67.13;98818.74;1826188;78;27517;-67
2024/03/27 04:34:16;;;;;;;9.98;6.92;;;;;;;5.59;67.08;98827.87;1827357;78;25752;-67
2024/03/27 04:36:44;;;;;;;11.40;6.60;;;;;;;5.58;67.11;98828.19;1794924;80;25685;-67
2024/03/27 04:39:10;;;;;;;11.30;7.03;;;;;;;5.57;67.04;98831.43;1827434;78;25513;-67
2024/03/27 04:41:36;;;;;;;15.75;8.23;;;;;;;5.59;67.06;98833.80;1794978;80;25585;-67
2024/03/27 04:44:02;;;;;;;9.85;6.65;;;;;;;5.57;67.04;98833.33;1827484;78;27517;-67
2024/03/27 04:46:31;;;;;;;9.73;6.33;;;;;;;5.58;67.05;98829.53;1827373;78;25418;-67
2024/03/27 04:48:57;;;;;;;12.10;6.72;;;;;;;5.55;67.00;98821.56;1794877;80;25601;-67
2024/03/27 04:51:23;;;;;;;9.83;6.50;;;;;;;5.58;66.91;98821.48;1827460;78;26141;-67
2024/03/27 04:53:49;;;;;;;12.13;7.03;;;;;;;5.57;66.96;98820.70;1794963;80;25589;-66
2024/03/27 04:56:15;;;;;;;10.38;7.15;;;;;;;5.57;66.97;98808.62;1827496;78;27508;-67
2024/03/27 04:58:41;;;;;;;8.03;5.78;;;;;;;5.56;66.94;98807.59;1794836;80;25603;-67
2024/03/27 05:01:08;;;;;;;12.37;6.60;;;;;;;5.55;67.04;98801.98;1827453;78;25380;-67
2024/03/27 05:03:35;;;;;;;10.20;6.72;;;;;;;5.54;66.95;98802.55;1827380;78;25525;-67
2024/03/27 05:06:01;;;;;;;10.98;6.97;;;;;;;5.56;66.95;98800.33;1794954;80;25561;-67
2024/03/27 05:08:29;;;;;;;14.95;6.90;;;;;;;5.56;66.95;98803.02;1827434;78;27513;-67
2024/03/27 05:10:55;;;;;;;11.53;6.78;;;;;;;5.59;66.88;98795.69;1794758;80;27335;-67
2024/03/27 05:13:21;;;;;;;13.45;6.65;;;;;;;5.60;66.88;98797.28;1827432;78;25554;-67
2024/03/27 05:15:47;;;;;;;10.68;6.47;;;;;;;5.63;66.89;98801.22;1827452;78;25594;-67
2024/03/27 05:18:13;;;;;;;12.03;6.55;;;;;;;5.65;66.84;98791.52;1794938;80;25593;-67
2024/03/27 05:20:41;;;;;;;12.82;7.12;;;;;;;5.67;66.64;98786.63;1827406;78;27461;-67
2024/03/27 05:23:07;;;;;;;10.82;7.03;;;;;;;5.67;66.66;98784.75;1827326;78;25348;-67
2024/03/27 05:25:35;;;;;;;10.38;6.70;;;;;;;5.68;66.48;98783.63;1794896;80;25614;-67
2024/03/27 05:28:01;;;;;;;13.18;7.37;;;;;;;5.70;66.53;98788.13;1827408;78;25603;-68
2024/03/27 05:30:27;;;;;;;12.60;7.25;;;;;;;5.71;66.51;98789.72;1791365;80;25585;-68
2024/03/27 05:32:56;;;;;;;10.90;6.78;;;;;;;5.74;66.45;98787.76;1797204;79;28301;-68
2024/03/27 05:35:24;;;;;;;11.67;6.87;;;;;;;5.76;66.37;98787.45;1797344;79;25600;-68
2024/03/27 05:37:50;;;;;;;9.73;6.05;;;;;;;5.78;66.18;98780.65;1797102;79;25456;-67
2024/03/27 05:40:18;;;;;;;12.10;6.58;;;;;;;5.79;66.31;98779.56;1797040;79;25499;-67
2024/03/27 05:42:45;;;;;;;14.75;7.17;;;;;;;5.84;66.22;98783.99;1797166;79;25635;-67
2024/03/27 05:45:12;;;;;;;14.80;8.35;;;;;;;5.87;66.37;98784.68;1797098;79;29608;-67
2024/03/27 05:47:44;;;;;;;13.32;6.83;;;;;;;5.94;66.23;98781.53;1796983;79;25586;-68
2024/03/27 05:50:10;;;;;;;13.55;8.75;;;;;;;6.00;65.90;98780.87;1797161;79;25530;-68
2024/03/27 05:52:38;;;;;;;12.98;7.25;;;;;;;6.07;66.08;98776.60;1797089;79;25563;-68
2024/03/27 05:55:08;;;;;;;12.82;7.10;;;;;;;6.17;66.17;98776.84;1797159;79;25553;-68
2024/03/27 05:57:34;;;;;;;10.35;7.00;;;;;;;6.28;66.03;98776.77;1797157;79;28547;-68
2024/03/27 06:00:01;;;;;;;11.73;6.78;;;;;;;6.43;65.69;98780.06;1797080;79;27387;-68
2024/03/27 06:02:28;;;;;;;10.32;6.70;;;;;;;6.52;65.41;98772.77;1797164;79;25688;-67
2024/03/27 06:04:55;;;;;;;9.88;6.62;;;;;;;6.62;65.55;98770.31;1797080;79;26202;-67
2024/03/27 06:07:23;;;;;;;9.13;6.30;;;;;;;6.71;65.32;98767.84;1797084;79;25569;-67
2024/03/27 06:09:51;;;;;;;9.75;6.42;;;;;;;6.79;65.02;98768.92;1797031;79;27263;-68
2024/03/27 06:12:19;;;;;;;11.30;6.75;;;;;;;6.89;65.13;98770.48;1797179;79;25616;-68
2024/03/27 06:14:45;;;;;;;13.65;6.90;;;;;;;6.94;62.93;98770.87;1797070;79;25603;-68
2024/03/27 06:17:11;;;;;;;10.58;6.55;;;;;;;6.96;63.58;98772.11;1797099;79;25565;-68
2024/03/27 06:19:38;;;;;;;11.73;6.62;;;;;;;6.99;63.82;98770.12;1797088;79;25418;-67
2024/03/27 06:22:04;;;;;;;12.50;6.45;;;;;;;7.02;63.66;98775.43;1797114;79;27546;-67
2024/03/27 06:24:30;;;;;;;10.30;5.80;;;;;;;7.02;63.51;98777.55;1797070;79;25377;-67
2024/03/27 06:26:56;;;;;;;10.68;6.28;;;;;;;7.03;62.93;98775.64;1797134;79;25564;-67
2024/03/27 06:29:22;;;;;;;9.35;5.92;;;;;;;7.07;63.07;98775.25;1797010;79;25517;-67
2024/03/27 06:31:48;;;;;;;9.88;6.30;;;;;;;7.11;62.91;98768.11;1789570;79;25462;-67
2024/03/27 06:34:16;;;;;;;10.80;5.47;;;;;;;7.18;62.95;98773.77;1783465;80;27531;-67
2024/03/27 06:36:43;;;;;;;11.38;5.67;;;;;;;7.33;62.66;98775.69;1783335;80;26375;-67
2024/03/27 06:39:12;;;;;;;10.03;5.60;;;;;;;7.49;62.35;98774.01;1783485;79;25574;-68
2024/03/27 06:41:40;;;;;;;;;;;;;;;7.59;62.21;98767.47;1786068;80;26362;-68
2024/03/27 06:44:08;;;;;;;8.30;5.42;;;;;;;7.75;61.89;98759.06;1783470;80;25542;-68
2024/03/27 06:46:36;;;;;;;12.82;6.20;;;;;;;7.95;61.55;98760.73;1783383;80;27479;-68
2024/03/27 06:49:17;;;;;;;8.68;4.83;;;;;;;8.18;60.49;98759.84;1783313;80;25433;-66
2024/03/27 06:51:35;;;;;;;10.95;5.50;;;;;;;8.36;61.88;98759.92;1783340;80;25554;-67
2024/03/27 06:54:05;;;;;;;9.98;5.17;;;;;;;8.62;59.24;98756.78;1783359;80;25444;-67
2024/03/27 06:56:31;;;;;;;7.97;5.45;;;;;;;8.72;59.98;98746.36;1783485;80;25401;-68
2024/03/27 06:58:58;;;;;;;20.50;18.65;;;;;;;8.89;59.64;98754.03;1783454;80;28152;-68
2024/03/27 07:01:24;;;;;;;10.48;5.25;;;;;;;9.02;58.36;98749.43;1783309;80;25592;-67
2024/03/27 07:03:50;;;;;;;8.28;4.87;;;;;;;9.13;57.16;98749.22;1783490;79;25369;-67
2024/03/27 07:06:16;;;;;;;12.75;11.48;;;;;;;9.21;57.88;98738.08;1783378;80;25623;-68
2024/03/27 07:08:44;;;;;;;8.33;5.37;;;;;;;9.36;57.78;98738.75;1783473;79;25621;-68
2024/03/27 07:11:10;;;;;;;7.60;5.08;;;;;;;9.57;58.05;98747.27;1783521;80;27540;-68
2024/03/27 07:13:37;;;;;;;7.42;5.15;;;;;;;9.85;56.93;98747.34;1783330;80;25525;-68
2024/03/27 07:16:05;;;;;;;7.22;4.90;;;;;;;10.10;55.60;98755.59;1783563;79;25616;-67
2024/03/27 07:18:32;;;;;;;27.73;25.68;;;;;;;10.32;56.74;98764.34;1783644;79;25607;-68
2024/03/27 07:21:00;;;;;;;7.15;4.65;;;;;;;10.58;54.81;98754.98;1783633;80;25606;-68
2024/03/27 07:23:29;;;;;;;10.08;5.35;;;;;;;10.88;53.48;98764.03;1783700;79;28097;-68
2024/03/27 07:25:57;;;;;;;41.80;39.00;;;;;;;11.12;54.50;98753.64;1783396;80;25574;-68
2024/03/27 07:28:23;;;;;;;8.30;4.85;;;;;;;11.38;53.26;98741.67;1783633;79;25515;-67
2024/03/27 07:30:51;;;;;;;14.98;13.65;;;;;;;11.59;52.65;98744.65;1783412;80;25523;-68
2024/03/27 07:33:19;;;;;;;45.60;42.45;;;;;;;11.76;50.63;98744.82;1761933;79;25543;-67
2024/03/27 07:35:45;;;;;;;12.13;10.68;;;;;;;11.90;50.09;98747.05;1796106;79;27366;-67
2024/03/27 07:38:11;;;;;;;7.15;4.60;;;;;;;12.09;50.03;98743.62;1796037;79;25390;-67
2024/03/27 07:40:37;;;;;;;7.55;4.00;;;;;;;12.34;48.16;98735.95;1796136;79;25588;-68
2024/03/27 07:43:05;;;;;;;8.03;4.10;;;;;;;12.51;48.34;98727.94;1796087;79;26145;-68
2024/03/27 07:45:32;;;;;;;6.08;4.03;;;;;;;12.69;47.11;98729.04;1796207;79;25456;-67
2024/03/27 07:47:59;;;;;;;7.10;4.60;;;;;;;12.77;46.95;98740.81;1796196;79;27510;-68
2024/03/27 07:50:26;;;;;;;5.85;4.20;;;;;;;12.97;46.81;98736.67;1796067;79;26154;-68
2024/03/27 07:52:52;;;;;;;6.75;4.08;;;;;;;13.14;44.61;98730.73;1796185;79;25440;-68
2024/03/27 07:55:18;;;;;;;5.35;3.87;;;;;;;13.33;44.21;98750.84;1796075;79;25650;-68
2024/03/27 07:57:47;;;;;;;6.37;4.15;;;;;;;13.45;45.12;98757.45;1796124;79;25563;-67
2024/03/27 08:00:18;;;;;;;8.20;4.72;;;;;;;13.75;42.81;98743.10;1796166;79;28064;-66
2024/03/27 08:02:46;;;;;;;5.10;4.10;;;;;;;14.10;44.33;98742.01;1796075;79;25557;-65
2024/03/27 08:05:13;;;;;;;4.53;3.80;;;;;;;14.49;43.00;98741.08;1796159;79;25457;-65
2024/03/27 08:07:42;;;;;;;7.05;4.15;;;;;;;14.89;41.09;98749.06;1796112;79;25958;-65
2024/03/27 08:10:11;;;;;;;7.47;5.62;;;;;;;15.38;43.67;98744.40;1796173;79;25636;-65
2024/03/27 08:12:38;;;;;;;5.92;3.67;;;;;;;15.87;41.55;98736.94;1796230;79;27509;-67
2024/03/27 08:15:09;;;;;;;56.33;52.58;;;;;;;16.35;39.10;98741.41;1796011;79;25584;-67
2024/03/27 08:17:37;;;;;;;7.05;3.90;;;;;;;16.75;37.93;98724.51;1796141;79;25462;-67
2024/03/27 08:20:06;;;;;;;5.08;4.12;;;;;;;17.10;40.18;98731.20;1796034;79;25449;-67
2024/03/27 08:22:32;;;;;;;4.78;3.80;;;;;;;17.49;39.94;98735.25;1796263;79;25464;-67
2024/03/27 08:24:58;;;;;;;6.22;3.55;;;;;;;17.82;39.35;98716.80;1796097;79;27475;-66
2024/03/27 08:27:24;;;;;;;7.25;3.50;;;;;;;17.82;39.03;98707.83;1795975;79;25748;-66
2024/03/27 08:29:51;;;;;;;8.95;4.80;;;;;;;17.85;37.91;98711.14;1796022;79;25335;-66
2024/03/27 08:32:17;;;;;;;5.92;3.77;;;;;;;17.73;37.79;98713.72;1800110;79;26023;-66
2024/03/27 08:34:43;;;;;;;7.05;3.92;;;;;;;17.59;37.45;98706.34;1805238;79;25355;-65
2024/03/27 08:37:11;;;;;;;6.30;3.72;;;;;;;17.59;37.91;98698.14;1805170;79;27591;-69
2024/03/27 08:39:40;;;;;;;5.97;3.62;;;;;;;17.75;38.00;98708.62;1805196;79;25634;-68
2024/03/27 08:42:07;;;;;;;8.65;4.00;;;;;;;17.97;34.33;98697.65;1805219;79;25452;-69
2024/03/27 08:44:33;;;;;;;6.50;4.60;;;;;;;18.38;38.17;98689.60;1805144;79;25482;-68
2024/03/27 08:47:00;;;;;;;6.70;4.35;;;;;;;18.96;36.10;98699.58;1805122;79;25540;-68
2024/03/27 08:49:26;;;;;;;4.78;3.50;;;;;;;19.30;35.26;98707.71;1805162;79;27528;-68
2024/03/27 08:51:52;;;;;;;4.67;3.72;;;;;;;19.56;34.97;98686.49;1805020;79;25457;-66
2024/03/27 08:54:19;;;;;;;6.03;3.72;;;;;;;19.76;35.00;98694.89;1805111;79;25593;-66
2024/03/27 08:56:45;;;;;;;6.00;3.90;;;;;;;20.08;34.01;98690.98;1805036;79;25530;-68
2024/03/27 08:59:11;;;;;;;6.47;3.70;;;;;;;20.07;33.83;98692.16;1805150;79;25618;-68
2024/03/27 09:01:37;;;;;;;6.95;4.10;;;;;;;20.38;32.16;98699.03;1805191;79;28152;-68
2024/03/27 09:04:03;;;;;;;5.00;3.62;;;;;;;20.42;32.77;98700.34;1805118;79;25438;-68
2024/03/27 09:06:30;;;;;;;6.67;4.15;;;;;;;20.17;30.29;98686.96;1805123;79;25716;-68
2024/03/27 09:08:56;;;;;;;5.87;3.40;;;;;;;20.31;32.05;98697.16;1805126;79;25545;-67
2024/03/27 09:11:23;;;;;;;5.28;3.60;;;;;;;20.41;31.15;98668.58;1805148;79;25384;-67
2024/03/27 09:13:49;;;;;;;4.72;3.52;;;;;;;20.77;31.89;98665.30;1805140;79;27505;-67
2024/03/27 09:16:15;;;;;;;6.75;3.67;;;;;;;20.89;32.18;98671.57;1804951;79;25630;-68
2024/03/27 09:18:42;;;;;;;4.47;3.37;;;;;;;21.16;32.24;98674.86;1805064;79;25635;-68
2024/03/27 09:21:10;;;;;;;54.08;50.83;;;;;;;21.42;29.55;98667.72;1805317;79;26105;-67
2024/03/27 09:23:39;;;;;;;70.40;66.25;;;;;;;21.35;29.21;98667.25;1805244;79;32300;-68
2024/03/27 09:26:08;;;;;;;;;;;;;;;20.35;29.25;98537.86;1807790;79;28237;-67
2024/03/27 09:28:35;;;;;;;5.97;3.12;;;;;;;20.90;29.80;98665.66;1805015;79;25686;-68
2024/03/27 09:31:06;;;;;;;68.87;64.50;;;;;;;20.74;30.48;98666.13;1805133;79;25354;-67
